Flight Track Log - Related Links

Times and Time Zones

All times are in EDT time to prevent confusion due to time zone crossing. See the GJS3657 flight status page for this flight to view local times or setup timezone preferences in your user account.

Time Position Orientation Groundspeed Altitude Reporting Facility
EDT Latitude Longitude Course Direction KTS MPH feet Rate Location/Type
Tue 08:50:30 AM 42.8381 -73.8219 341° North 229 264 3,900  Level Boston Center
Tue 08:51:55 AM 42.9147 -73.8575 341° North 220 253 7,000 2,276 Climbing Boston Center
Tue 08:52:55 AM 42.9661 -73.9156 320° Northwest 233 268 9,400 1,850 Climbing Boston Center
Tue 08:53:55 AM 43.0297 -73.9825 322° Northwest 252 290 10,700 1,500 Climbing Boston Center
Tue 08:54:55 AM 43.1017 -74.0639 320° Northwest 297 342 12,400 1,800 Climbing Boston Center
Tue 08:55:55 AM 43.1164 -74.1836 280° West 305 351 14,300 1,600 Climbing Boston Center
Tue 08:56:55 AM 43.1186 -74.3117 271° West 310 357 15,600 1,450 Climbing Boston Center
Tue 08:57:55 AM 43.1228 -74.4428 273° West 337 388 17,200 1,650 Climbing Boston Center
Tue 08:58:55 AM 43.1264 -74.5767 272° West 348 400 18,900 1,550 Climbing Boston Center
Tue 08:59:55 AM 43.1303 -74.7103 272° West 354 407 20,300 1,300 Climbing Boston Center
Tue 09:00:55 AM 43.1336 -74.8528 272° West 364 419 21,500 1,250 Climbing Boston Center
Tue 09:01:55 AM 43.1367 -74.9981 272° West 377 434 22,800 1,350 Climbing Boston Center
Tue 09:02:55 AM 43.1417 -75.1433 273° West 382 440 24,200 1,350 Climbing Boston Center
Tue 09:03:55 AM 43.1444 -75.2858 272° West 382 440 25,500 1,100 Climbing Boston Center
Tue 09:04:55 AM 43.1472 -75.4169 272° West 382 440 26,400 950 Climbing Boston Center
Tue 09:05:55 AM 43.1494 -75.5650 271° West 387 445 27,400 1,000 Climbing Boston Center
Tue 09:06:55 AM 43.1517 -75.7103 271° West 387 445 28,400 1,000 Climbing Boston Center
Tue 09:07:55 AM 43.1558 -75.8586 272° West 387 445 29,400 1,070 Climbing Boston Center
Tue 09:09:32 AM 43.1333 -76.0667 262° West 380 437 31,200 1,054 Climbing Toronto Center
Tue 09:10:23 AM 43.1617 -76.2222 284° West 375 432 32,000 973 Climbing Cleveland Center
Tue 09:11:23 AM 43.1606 -76.3619 269° West 370 426 33,000 1,000 Climbing Cleveland Center
Tue 09:12:23 AM 43.1633 -76.4956 272° West 365 420 34,000 950 Climbing Cleveland Center
Tue 09:13:23 AM 43.1617 -76.6294 269° West 365 420 34,900 850 Climbing Cleveland Center
Tue 09:14:23 AM 43.1594 -76.7436 269° West 360 414 35,700 550 Climbing Cleveland Center
Tue 09:15:23 AM 43.1594 -76.8744 270° West 349 402 36,000 150 Climbing Cleveland Center
Tue 09:16:23 AM 43.1594 -77.0083 270° West 349 402 36,000  Level Cleveland Center
Tue 09:17:23 AM 43.1572 -77.1394 269° West 349 402 36,000  Level Cleveland Center
Tue 09:18:23 AM 43.1569 -77.2733 270° West 349 402 36,000  Level Cleveland Center
Tue 09:19:23 AM 43.1564 -77.4069 270° West 349 402 36,000  Level Cleveland Center
Tue 09:20:23 AM 43.1558 -77.5408 270° West 349 402 36,000  Level Cleveland Center
Tue 09:21:23 AM 43.1533 -77.6775 269° West 349 402 36,000  Level Cleveland Center
Tue 09:22:23 AM 43.1522 -77.8114 269° West 354 407 36,000  Level Cleveland Center
Tue 09:23:23 AM 43.1514 -77.9481 270° West 359 413 36,000  Level Cleveland Center
Tue 09:24:23 AM 43.1481 -78.0819 268° West 359 413 36,000  Level Cleveland Center
Tue 09:25:23 AM 43.1467 -78.2186 269° West 359 413 36,000  Level Cleveland Center
Tue 09:26:23 AM 43.1453 -78.3525 269° West 364 419 36,000 250 Level Cleveland Center
Tue 09:27:23 AM 43.1417 -78.4919 268° West 364 419 36,500 550 Climbing Cleveland Center
Tue 09:28:23 AM 43.1378 -78.6258 268° West 364 419 37,100 700 Climbing Cleveland Center
Tue 09:29:23 AM 43.1317 -78.7683 267° West 369 425 37,900 450 Climbing Cleveland Center
Tue 09:30:23 AM 43.1294 -78.8992 269° West 364 419 38,000 50 Climbing Cleveland Center
Tue 09:31:23 AM 43.1250 -79.0331 267° West 364 419 38,000  Level Cleveland Center
Tue 09:32:32 AM 43.1167 -79.1833 266° West 360 414 38,000  Level Toronto Center
Tue 09:33:32 AM 43.1000 -79.3167 260° West 360 414 38,000  Level Toronto Center
Tue 09:34:32 AM 43.1000 -79.4667 270° West 370 426 38,000  Level Toronto Center
Tue 09:35:32 AM 43.1000 -79.6167 270° West 370 426 38,000  Level Toronto Center
Tue 09:36:32 AM 43.0833 -79.7500 260° West 370 426 38,000  Level Toronto Center
Tue 09:37:32 AM 43.0833 -79.8833 270° West 380 437 38,000  Level Toronto Center
Tue 09:38:32 AM 43.0833 -80.0167 270° West 380 437 38,000  Level Toronto Center
Tue 09:39:32 AM 43.0667 -80.1833 262° West 380 437 38,000  Level Toronto Center
Tue 09:40:32 AM 43.0667 -80.3167 270° West 380 437 38,000  Level Toronto Center
Tue 09:41:32 AM 43.0667 -80.4833 270° West 380 437 38,000  Level Toronto Center
Tue 09:42:32 AM 43.0500 -80.6167 260° West 390 449 38,000  Level Toronto Center
Tue 09:43:32 AM 43.0500 -80.7500 270° West 390 449 38,000  Level Toronto Center
Tue 09:44:32 AM 43.0333 -80.9167 262° West 390 449 38,000  Level Toronto Center
Tue 09:45:32 AM 43.0167 -81.0500 260° West 390 449 38,000  Level Toronto Center
Tue 09:46:32 AM 43.0167 -81.2000 270° West 390 449 38,000  Level Toronto Center
Tue 09:47:32 AM 43.0167 -81.3500 270° West 390 449 38,000  Level Toronto Center
Tue 09:48:32 AM 43.0167 -81.5000 270° West 390 449 38,000  Level Toronto Center
Tue 09:49:32 AM 43.0167 -81.6667 270° West 400 460 38,000  Level Toronto Center
Tue 09:50:32 AM 43.0167 -81.8000 270° West 400 460 38,000  Level Toronto Center
Tue 09:51:32 AM 43.0000 -81.9667 262° West 400 460 38,000  Level Toronto Center
Tue 09:52:32 AM 43.0000 -82.1167 270° West 390 449 38,000  Level Toronto Center
Tue 09:53:32 AM 43.0000 -82.2500 270° West 390 449 38,000  Level Toronto Center
Tue 09:54:32 AM 43.0000 -82.4167 270° West 400 460 38,000  Level Toronto Center
Tue 09:55:32 AM 43.0000 -82.5500 270° West 400 460 38,000  Level Toronto Center
Tue 09:56:23 AM 43.0039 -82.6783 272° West 405 466 38,000  Level Cleveland Center
Tue 09:57:23 AM 42.9989 -82.8286 267° West 405 466 38,000  Level Cleveland Center
Tue 09:58:23 AM 42.9917 -82.9817 266° West 405 466 38,000  Level Cleveland Center
Tue 09:59:23 AM 42.9886 -83.1292 268° West 400 460 38,000  Level Cleveland Center
Tue 10:00:23 AM 42.9811 -83.2792 266° West 400 460 38,000 -50 Level Cleveland Center
Tue 10:01:23 AM 42.9772 -83.4322 268° West 405 466 37,900 -500 Descending Cleveland Center
Tue 10:02:23 AM 42.9733 -83.5856 268° West 405 466 37,000 -900 Descending Cleveland Center
Tue 10:03:23 AM 42.9650 -83.7411 266° West 411 473 36,100 -1,000 Descending Cleveland Center
Tue 10:04:23 AM 42.9525 -83.8908 264° West 411 473 35,000 -1,050 Descending Cleveland Center
Tue 10:05:23 AM 42.9378 -84.0433 263° West 406 467 34,000 -1,000 Descending Cleveland Center
Tue 10:06:23 AM 42.9225 -84.2011 263° West 411 473 33,000 -889 Descending Cleveland Center
Tue 10:07:38 AM 42.9042 -84.3947 263° West 425 489 32,000 -438 Descending Chicago Center
Tue 10:08:40 AM 42.8869 -84.5542 262° West 424 488 32,000  Level Chicago Center
Tue 10:09:42 AM 42.8672 -84.7525 262° West 433 498 32,000  Level Chicago Center
Tue 10:10:44 AM 42.8486 -84.9192 261° West 442 509 32,000  Level Chicago Center
Tue 10:11:45 AM 42.8325 -85.0772 262° West 435 501 32,000  Level Chicago Center
Tue 10:12:47 AM 42.8158 -85.2369 262° West 429 494 32,000  Level Chicago Center
Tue 10:13:49 AM 42.7983 -85.3986 262° West 430 495 32,000  Level Chicago Center
Tue 10:14:51 AM 42.7758 -85.5581 259° West 429 494 32,000 -1,113 Level Chicago Center
Tue 10:15:53 AM 42.7475 -85.7144 256° West 426 490 29,700 -2,661 Descending Chicago Center
Tue 10:16:55 AM 42.7197 -85.8672 256° West 417 480 26,500 -3,484 Descending Chicago Center
Tue 10:17:57 AM 42.6867 -86.0508 256° West 414 476 22,500 -3,000 Descending Chicago Center
Tue 10:18:59 AM 42.6586 -86.2017 256° West 411 473 20,300 -1,355 Descending Chicago Center
Tue 10:20:01 AM 42.6314 -86.3439 255° West 394 453 19,700 -1,296 Descending Chicago Center
Tue 10:21:04 AM 42.6053 -86.4844 256° West 387 445 17,600 -1,920 Descending Chicago Center
Tue 10:22:06 AM 42.5775 -86.6256 255° West 385 443 15,700 -2,081 Descending Chicago Center
Tue 10:23:08 AM 42.5522 -86.7633 256° West 377 434 13,300 -2,129 Descending Chicago Center
Tue 10:24:10 AM 42.5167 -86.8886 249° West 361 415 11,300 -1,597 Descending Chicago Center
Tue 10:25:12 AM 42.4778 -87.0331 250° West 343 395 10,000 -629 Descending Chicago Center
Tue 10:26:14 AM 42.4444 -87.1500 249° West 335 386 10,000  Level Chicago Center
Tue 10:27:16 AM 42.4114 -87.2675 249° West 336 387 10,000  Level Chicago Center
Tue 10:28:18 AM 42.3764 -87.3969 250° West 337 388 10,000  Level Chicago Center
Tue 10:29:20 AM 42.3439 -87.5142 249° West 337 388 10,000  Level Chicago Center
Tue 10:30:22 AM 42.2753 -87.6006 223° Southwest 347 399 10,000  Level Chicago Center
Tue 10:31:24 AM 42.2025 -87.6803 219° Southwest 340 391 10,000 -145 Level Chicago Center
Tue 10:32:26 AM 42.1258 -87.7578 217° Southwest 290 334 9,700 -864 Descending Chicago Center
Tue 10:33:29 AM 42.0903 -87.8414 240° Southwest 270 311 8,200 -1,296 Descending Chicago Center
Tue 10:34:31 AM 42.0911 -87.9414 271° West 271 312 7,000 -581 Descending Chicago Center
Tue 10:35:33 AM 42.0908 -88.0403 270° West 267 307 7,000 -581 Level Chicago Center
Tue 10:36:35 AM 42.0908 -88.1400 270° West 268 308 5,800 -1,355 Descending Chicago Center
Tue 10:37:37 AM 42.0911 -88.2589 270° West 268 308 4,200 -871 Descending Chicago Center
Tue 10:38:39 AM 42.0894 -88.3550 269° West 264 304 4,000 -97 Descending Chicago Center
Tue 10:39:41 AM 42.0667 -88.4175 244° Southwest 240 276 4,000  Level Chicago Center
Tue 10:40:43 AM 42.0044 -88.3950 165° South 238 274 4,000  Level Chicago Center
Tue 10:41:45 AM 41.9819 -88.3242 113° Southeast 234 269 4,000  Level Chicago Center
Tue 10:42:47 AM 41.9836 -88.2256 89° East 228 262 4,000  Level Chicago Center
Tue 10:43:50 AM 41.9836 -88.1503 90° East 215 247 4,000 -432 Level Chicago Center
Tue 10:44:52 AM 41.9831 -88.0781 91° East 205 236 3,100 -919 Descending Chicago Center
Tue 10:45:54 AM 41.9836 -88.0117 89° East 195 224 2,100 -823 Descending Chicago Center
Tue 10:46:56 AM 41.9833 -87.9597 90° East 170 196 1,400 -677 Descending Chicago Center
Tue 10:48:00 AM 41.9817 -87.9067 217° Southwest  Level Estimated
Tue 10:55:00 AM 41.9817 -87.9067 217° Southwest  Level Estimated

Login

Don't have an account? Register now (free) for customized features, flight alerts, and more!